createdAt,value
2022-12-27T00:00:15.425Z,16.10
2022-12-27T00:03:09.582Z,16.90
2022-12-27T00:05:46.788Z,17.20
2022-12-27T00:08:21.861Z,16.40
2022-12-27T00:10:53.982Z,16.00
2022-12-27T00:13:25.826Z,14.80
2022-12-27T00:16:00.463Z,16.00
2022-12-27T00:18:33.103Z,17.70
2022-12-27T00:21:06.775Z,11.20
2022-12-27T00:23:40.779Z,11.40
2022-12-27T00:26:16.423Z,16.70
2022-12-27T00:28:52.531Z,17.30
2022-12-27T00:31:27.783Z,15.50
2022-12-27T00:34:02.066Z,15.90
2022-12-27T00:36:35.243Z,16.00
2022-12-27T00:39:07.440Z,15.80
2022-12-27T00:41:39.258Z,15.50
2022-12-27T00:44:11.630Z,15.60
2022-12-27T00:46:43.687Z,15.40
2022-12-27T00:49:15.854Z,16.50
2022-12-27T00:51:47.884Z,13.80
2022-12-27T00:54:19.803Z,15.40
2022-12-27T00:56:51.744Z,11.70
2022-12-27T00:59:23.606Z,15.40
2022-12-27T01:01:55.572Z,13.50
2022-12-27T01:04:27.578Z,15.00
2022-12-27T01:06:59.437Z,14.90
2022-12-27T01:09:31.872Z,12.20
2022-12-27T01:12:03.700Z,15.80
2022-12-27T01:14:35.724Z,13.30
2022-12-27T01:17:07.578Z,11.70
2022-12-27T01:19:39.997Z,14.10
2022-12-27T01:22:11.926Z,12.90
2022-12-27T01:24:44.191Z,13.50
2022-12-27T01:27:16.348Z,12.00
2022-12-27T01:29:48.402Z,13.40
2022-12-27T01:32:20.305Z,10.30
2022-12-27T01:34:52.889Z,13.10
2022-12-27T01:37:24.819Z,11.20
2022-12-27T01:39:57.107Z,14.40
2022-12-27T01:42:47.855Z,13.10
2022-12-27T01:45:23.141Z,12.10
2022-12-27T01:47:57.894Z,12.70
2022-12-27T01:50:33.686Z,14.00
2022-12-27T01:53:10.105Z,10.70
2022-12-27T01:55:47.391Z,12.90
2022-12-27T01:58:23.473Z,11.20
2022-12-27T02:00:55.784Z,12.30
2022-12-27T02:03:30.492Z,12.10
2022-12-27T02:06:05.181Z,13.60
2022-12-27T02:08:40.439Z,11.50
2022-12-27T02:11:13.371Z,11.00
2022-12-27T02:13:47.179Z,12.50
2022-12-27T02:16:22.123Z,12.60
2022-12-27T02:18:53.947Z,10.30
2022-12-27T02:21:38.997Z,10.30
2022-12-27T02:24:35.966Z,8.40
2022-12-27T02:27:11.787Z,9.80
2022-12-27T02:29:58.363Z,11.60
2022-12-27T02:32:34.870Z,11.60
2022-12-27T02:35:14.655Z,8.50
2022-12-27T02:37:50.489Z,11.50
2022-12-27T02:40:43.719Z,8.80
2022-12-27T02:43:33.126Z,9.20
2022-12-27T02:46:25.401Z,9.80
2022-12-27T02:49:16.949Z,10.60
2022-12-27T02:52:18.913Z,9.20
2022-12-27T02:55:07.968Z,11.00
2022-12-27T02:57:44.989Z,8.00
2022-12-27T03:00:38.071Z,8.80
2022-12-27T03:03:24.360Z,8.50
2022-12-27T03:06:42.988Z,10.90
2022-12-27T03:09:56.528Z,10.00
2022-12-27T03:12:55.345Z,8.60
2022-12-27T03:15:56.356Z,8.60
2022-12-27T03:18:47.697Z,5.70
2022-12-27T03:21:41.473Z,4.90
2022-12-27T03:24:36.948Z,4.00
2022-12-27T03:27:18.501Z,4.80
2022-12-27T03:30:11.060Z,2.70
2022-12-27T03:33:02.843Z,4.40
2022-12-27T03:35:39.608Z,2.00
2022-12-27T03:38:13.536Z,1.80
2022-12-27T03:41:07.696Z,1.20
2022-12-27T03:43:39.675Z,1.00
2022-12-27T03:46:38.998Z,0.80
2022-12-27T03:49:17.000Z,0.60
2022-12-27T03:51:51.583Z,0.70
2022-12-27T03:54:27.457Z,0.40
2022-12-27T03:57:02.280Z,0.70
2022-12-27T03:59:34.599Z,0.90
2022-12-27T04:02:06.719Z,0.80
2022-12-27T04:04:38.756Z,0.60
2022-12-27T04:07:11.607Z,0.50
2022-12-27T04:10:01.057Z,0.80
2022-12-27T04:12:50.433Z,0.70
2022-12-27T04:15:39.990Z,0.60
2022-12-27T04:18:29.846Z,0.30
2022-12-27T04:21:19.059Z,0.50
2022-12-27T04:24:09.634Z,0.90
2022-12-27T04:26:59.410Z,1.20
2022-12-27T04:29:48.756Z,0.40
2022-12-27T04:32:38.134Z,0.50
2022-12-27T04:35:10.819Z,0.50
2022-12-27T04:37:42.809Z,0.50
2022-12-27T04:40:32.762Z,0.70
2022-12-27T04:43:22.387Z,0.60
2022-12-27T04:46:12.012Z,0.60
2022-12-27T04:49:01.690Z,0.90
2022-12-27T04:51:51.438Z,0.90
2022-12-27T04:54:41.513Z,0.30
2022-12-27T04:57:13.419Z,0.80
2022-12-27T05:00:03.048Z,0.90
2022-12-27T05:02:35.612Z,0.60
2022-12-27T05:05:09.407Z,1.70
2022-12-27T05:07:58.964Z,2.50
2022-12-27T05:10:48.445Z,1.10
2022-12-27T05:13:49.895Z,1.00
2022-12-27T05:16:21.840Z,0.90
2022-12-27T05:18:54.695Z,0.60
2022-12-27T05:21:26.597Z,1.00
2022-12-27T05:24:16.369Z,0.60
2022-12-27T05:26:48.216Z,0.90
2022-12-27T05:29:20.231Z,1.10
2022-12-27T05:31:51.969Z,0.80
2022-12-27T05:34:23.951Z,0.80
2022-12-27T05:36:55.906Z,1.00
2022-12-27T05:39:27.907Z,1.10
2022-12-27T05:42:00.052Z,0.70
2022-12-27T05:44:31.969Z,0.80
2022-12-27T05:47:03.846Z,0.90
2022-12-27T05:49:35.686Z,0.40
2022-12-27T05:52:07.715Z,0.60
2022-12-27T05:54:39.769Z,1.10
2022-12-27T05:57:11.540Z,0.90
2022-12-27T05:59:43.547Z,1.10
2022-12-27T06:02:15.515Z,1.80
2022-12-27T06:04:47.775Z,1.20
2022-12-27T06:07:19.611Z,0.90
2022-12-27T06:09:51.638Z,1.10
2022-12-27T06:12:23.409Z,1.10
2022-12-27T06:14:55.401Z,1.70
2022-12-27T06:17:27.226Z,1.50
2022-12-27T06:20:00.452Z,1.20
2022-12-27T06:22:32.323Z,1.40
2022-12-27T06:25:04.551Z,2.00
2022-12-27T06:27:36.432Z,1.10
2022-12-27T06:30:12.254Z,2.80
2022-12-27T06:32:44.228Z,1.80
2022-12-27T06:35:17.024Z,1.10
2022-12-27T06:37:49.360Z,1.00
2022-12-27T06:40:22.037Z,1.90
2022-12-27T06:42:53.771Z,1.20
2022-12-27T06:45:25.735Z,0.80
2022-12-27T06:47:57.956Z,2.90
2022-12-27T06:50:30.227Z,1.00
2022-12-27T06:53:02.236Z,1.10
2022-12-27T06:55:34.182Z,0.90
2022-12-27T06:58:06.002Z,1.70
2022-12-27T07:00:38.121Z,0.90
2022-12-27T07:03:10.020Z,2.20
2022-12-27T07:05:42.645Z,1.30
2022-12-27T07:08:14.518Z,0.90
2022-12-27T07:10:46.532Z,1.10
2022-12-27T07:13:18.684Z,2.40
2022-12-27T07:15:52.469Z,1.30
2022-12-27T07:18:24.390Z,1.40
2022-12-27T07:20:56.555Z,1.80
2022-12-27T07:23:28.418Z,2.10
2022-12-27T07:26:04.906Z,1.10
2022-12-27T07:28:37.121Z,1.70
2022-12-27T07:31:11.254Z,0.90
2022-12-27T07:36:17.125Z,1.60
2022-12-27T07:38:49.226Z,1.90
2022-12-27T07:41:22.125Z,1.40
2022-12-27T07:43:54.120Z,1.60
2022-12-27T07:46:27.420Z,2.20
2022-12-27T07:49:00.532Z,2.20
2022-12-27T07:51:32.564Z,1.60
2022-12-27T07:54:04.824Z,2.40
2022-12-27T07:56:36.781Z,1.40
2022-12-27T07:59:10.874Z,1.10
2022-12-27T08:02:00.138Z,2.50
2022-12-27T08:04:32.980Z,1.90
2022-12-27T08:07:10.475Z,3.00
2022-12-27T08:09:43.427Z,2.20
2022-12-27T08:12:16.082Z,1.80
2022-12-27T08:14:48.041Z,1.90
2022-12-27T08:17:22.604Z,2.40
2022-12-27T08:19:55.306Z,1.80
2022-12-27T08:22:27.177Z,3.30
2022-12-27T08:24:59.156Z,1.30
2022-12-27T08:27:31.136Z,1.40
2022-12-27T08:30:03.591Z,2.90
2022-12-27T08:32:35.567Z,2.00
2022-12-27T08:35:41.825Z,3.00
2022-12-27T08:38:03.572Z,3.00
2022-12-27T08:40:35.426Z,2.30
2022-12-27T08:43:07.215Z,1.60
2022-12-27T08:45:39.752Z,2.40
2022-12-27T08:48:11.839Z,2.70
2022-12-27T08:50:43.669Z,3.00
2022-12-27T08:53:15.878Z,2.70
2022-12-27T08:55:47.856Z,2.60
2022-12-27T08:58:21.968Z,3.00
2022-12-27T09:00:53.901Z,2.40
2022-12-27T09:03:25.673Z,2.50
2022-12-27T09:05:57.704Z,1.50
2022-12-27T09:08:29.690Z,1.80
2022-12-27T09:11:10.237Z,2.50
2022-12-27T09:13:42.332Z,1.80
2022-12-27T09:16:16.305Z,2.40
2022-12-27T09:18:51.158Z,2.30
2022-12-27T09:21:24.446Z,1.90
2022-12-27T09:23:57.124Z,1.60
2022-12-27T09:26:31.535Z,2.00
2022-12-27T09:29:04.023Z,2.50
2022-12-27T09:31:36.145Z,2.20
2022-12-27T09:34:08.107Z,2.50
2022-12-27T09:36:41.379Z,1.80
2022-12-27T09:39:14.001Z,2.60
2022-12-27T09:42:45.118Z,2.90
2022-12-27T09:44:52.179Z,2.50
2022-12-27T09:47:28.066Z,2.00
2022-12-27T09:50:07.461Z,1.90
2022-12-27T09:52:41.515Z,1.70
2022-12-27T09:55:19.037Z,2.10
2022-12-27T09:57:51.979Z,1.60
2022-12-27T10:00:34.803Z,2.00
2022-12-27T10:03:09.987Z,2.50
2022-12-27T10:08:23.130Z,3.30
2022-12-27T10:10:59.842Z,4.50
2022-12-27T10:13:41.079Z,2.20
2022-12-27T10:16:26.935Z,2.70
2022-12-27T10:19:17.140Z,3.20
2022-12-27T10:21:58.888Z,3.00
2022-12-27T10:24:39.360Z,1.70
2022-12-27T10:27:21.892Z,3.20
2022-12-27T10:29:56.300Z,2.60
2022-12-27T10:32:30.711Z,2.30
2022-12-27T10:35:04.728Z,2.60
2022-12-27T10:37:36.797Z,3.20
2022-12-27T10:40:14.275Z,3.50
2022-12-27T10:42:49.472Z,3.10
2022-12-27T10:45:33.731Z,2.00
2022-12-27T10:51:14.435Z,2.70
2022-12-27T10:54:02.265Z,3.40
2022-12-27T10:56:35.819Z,3.00
2022-12-27T10:59:17.016Z,4.10
2022-12-27T11:01:51.855Z,2.90
2022-12-27T11:04:25.474Z,2.90
2022-12-27T11:07:14.250Z,2.90
2022-12-27T11:09:51.309Z,3.90
2022-12-27T11:12:25.378Z,3.00
2022-12-27T11:17:37.048Z,2.70
2022-12-27T11:20:22.003Z,3.20
2022-12-27T11:22:55.996Z,2.80
2022-12-27T11:25:28.585Z,3.80
2022-12-27T11:28:04.433Z,2.60
2022-12-27T11:30:38.921Z,2.10
2022-12-27T11:33:25.428Z,4.00
2022-12-27T11:35:58.563Z,2.80
2022-12-27T11:38:32.578Z,2.30
2022-12-27T11:43:40.322Z,2.60
2022-12-27T11:46:19.479Z,2.80
2022-12-27T11:48:55.401Z,3.70
2022-12-27T11:51:56.487Z,2.00
2022-12-27T11:54:50.250Z,2.70
2022-12-27T11:57:30.555Z,2.20
2022-12-27T12:00:11.811Z,1.80
2022-12-27T12:03:08.257Z,1.60
2022-12-27T12:05:59.429Z,1.70
2022-12-27T12:08:48.082Z,3.10
2022-12-27T12:11:30.840Z,2.20
2022-12-27T12:14:19.550Z,5.50
2022-12-27T12:17:10.337Z,3.20
2022-12-27T12:20:04.762Z,2.70
2022-12-27T12:22:46.632Z,3.80
2022-12-27T12:25:39.599Z,2.80
2022-12-27T12:28:57.652Z,3.10
2022-12-27T12:32:10.174Z,3.20
2022-12-27T12:35:15.187Z,2.10
2022-12-27T12:38:12.553Z,3.30
2022-12-27T12:41:17.992Z,2.50
2022-12-27T12:44:18.873Z,2.60
2022-12-27T12:46:58.108Z,3.10
2022-12-27T12:49:41.597Z,3.40
2022-12-27T12:52:31.451Z,3.60
2022-12-27T12:55:36.525Z,2.70
2022-12-27T12:58:23.328Z,7.60
2022-12-27T13:01:18.023Z,5.30
2022-12-27T13:04:06.598Z,3.90
2022-12-27T13:07:04.232Z,2.20
2022-12-27T13:09:50.691Z,2.60
2022-12-27T13:12:31.547Z,2.90
2022-12-27T13:15:20.548Z,4.20
2022-12-27T13:18:00.357Z,4.90
2022-12-27T13:20:54.907Z,3.80
2022-12-27T13:23:35.890Z,4.60
2022-12-27T13:26:15.230Z,2.50
2022-12-27T13:28:53.653Z,3.80
2022-12-27T13:31:32.363Z,3.70
2022-12-27T13:34:14.732Z,4.50
2022-12-27T13:36:57.855Z,4.80
2022-12-27T13:39:42.669Z,3.30
2022-12-27T13:42:33.540Z,3.60
2022-12-27T13:45:25.782Z,4.60
2022-12-27T13:48:15.596Z,4.50
2022-12-27T13:51:02.022Z,3.40
2022-12-27T13:53:51.293Z,2.70
2022-12-27T13:56:53.498Z,3.00
2022-12-27T13:59:46.514Z,3.60
2022-12-27T14:02:45.623Z,3.50
2022-12-27T14:05:45.749Z,5.90
2022-12-27T14:08:27.480Z,5.30
2022-12-27T14:11:01.422Z,3.60
2022-12-27T14:13:36.146Z,5.10
2022-12-27T14:16:23.736Z,4.50
2022-12-27T14:19:04.231Z,4.50
2022-12-27T14:21:50.607Z,6.10
2022-12-27T14:24:48.240Z,3.30
2022-12-27T14:27:46.193Z,4.70
2022-12-27T14:30:54.663Z,3.50
2022-12-27T14:34:04.189Z,4.90
2022-12-27T14:37:22.715Z,5.60
2022-12-27T14:40:34.509Z,4.40
2022-12-27T14:43:47.240Z,4.40
2022-12-27T14:46:31.951Z,5.40
2022-12-27T14:49:35.198Z,3.60
2022-12-27T14:52:53.101Z,4.40
2022-12-27T14:55:43.462Z,3.90
2022-12-27T14:58:30.758Z,4.70
2022-12-27T15:01:11.842Z,4.20
2022-12-27T15:04:02.683Z,3.50
2022-12-27T15:07:12.672Z,6.20
2022-12-27T15:10:02.533Z,3.10
2022-12-27T15:12:53.826Z,4.00
2022-12-27T15:15:40.289Z,6.30
2022-12-27T15:18:34.482Z,5.20
2022-12-27T15:21:26.719Z,5.10
2022-12-27T15:24:06.466Z,3.40
2022-12-27T15:26:47.657Z,3.90
2022-12-27T15:29:28.157Z,5.20
2022-12-27T15:32:07.756Z,4.70
2022-12-27T15:38:13.489Z,3.00
2022-12-27T15:41:26.202Z,4.70
2022-12-27T15:44:27.613Z,3.40
2022-12-27T15:47:46.827Z,2.40
2022-12-27T15:50:37.965Z,4.30
2022-12-27T15:53:44.508Z,4.00
2022-12-27T15:56:32.945Z,4.30
2022-12-27T15:59:40.148Z,4.40
2022-12-27T16:02:40.418Z,3.20
2022-12-27T16:05:52.108Z,3.70
2022-12-27T16:08:45.459Z,3.90
2022-12-27T16:12:01.304Z,6.60
2022-12-27T16:14:41.036Z,5.20
2022-12-27T16:17:42.466Z,4.50
2022-12-27T16:20:35.987Z,5.00
2022-12-27T16:23:12.580Z,4.50
2022-12-27T16:25:50.287Z,6.70
2022-12-27T16:28:37.085Z,4.80
2022-12-27T16:31:19.214Z,6.20
2022-12-27T16:33:53.396Z,3.10
2022-12-27T16:36:30.760Z,3.40
2022-12-27T16:39:30.995Z,4.50
2022-12-27T16:42:11.844Z,3.90
2022-12-27T16:45:03.682Z,3.40
2022-12-27T16:48:15.864Z,4.00
2022-12-27T16:51:11.200Z,4.20
2022-12-27T16:54:02.268Z,3.70
2022-12-27T16:56:35.305Z,4.10
2022-12-27T16:59:45.289Z,3.00
2022-12-27T17:05:52.975Z,4.50
2022-12-27T17:08:37.635Z,3.40
2022-12-27T17:11:29.232Z,3.30
2022-12-27T17:14:05.748Z,4.80
2022-12-27T17:16:59.163Z,4.50
2022-12-27T17:19:39.788Z,5.70
2022-12-27T17:22:26.175Z,4.20
2022-12-27T17:25:05.915Z,4.70
2022-12-27T17:27:55.954Z,2.90
2022-12-27T17:30:32.298Z,4.30
2022-12-27T17:33:21.406Z,4.50
2022-12-27T17:36:20.537Z,4.00
2022-12-27T17:39:07.301Z,4.20
2022-12-27T17:42:05.455Z,3.70
2022-12-27T17:44:48.222Z,4.10
2022-12-27T17:47:38.256Z,4.60
2022-12-27T17:50:17.678Z,4.00
2022-12-27T17:53:34.361Z,3.20
2022-12-27T17:56:34.292Z,3.60
2022-12-27T17:59:16.897Z,3.90
2022-12-27T18:02:07.532Z,3.40
2022-12-27T18:04:43.686Z,4.80
2022-12-27T18:07:29.694Z,4.10
2022-12-27T18:10:09.534Z,3.60
2022-12-27T18:12:45.945Z,4.40
2022-12-27T18:15:23.033Z,3.90
2022-12-27T18:18:01.234Z,4.40
2022-12-27T18:20:39.402Z,4.90
2022-12-27T18:23:23.583Z,4.60
2022-12-27T18:25:59.066Z,4.10
2022-12-27T18:28:34.044Z,4.70
2022-12-27T18:31:12.743Z,4.10
2022-12-27T18:33:46.458Z,5.00
2022-12-27T18:40:35.346Z,4.60
2022-12-27T18:43:16.535Z,4.60
2022-12-27T18:45:53.053Z,4.10
2022-12-27T18:48:26.805Z,4.20
2022-12-27T18:51:05.467Z,2.70
2022-12-27T18:53:43.418Z,4.00
2022-12-27T18:56:32.496Z,3.40
2022-12-27T18:59:27.576Z,4.30
2022-12-27T19:02:01.868Z,2.50
2022-12-27T19:07:12.251Z,6.20
2022-12-27T19:09:59.976Z,3.80
2022-12-27T19:12:35.606Z,4.00
2022-12-27T19:15:19.185Z,3.80
2022-12-27T19:17:54.556Z,4.20
2022-12-27T19:20:30.294Z,4.80
2022-12-27T19:23:03.944Z,6.10
2022-12-27T19:25:38.478Z,3.70
2022-12-27T19:28:27.993Z,4.20
2022-12-27T19:31:18.170Z,4.20
2022-12-27T19:33:55.243Z,3.90
2022-12-27T19:36:29.807Z,4.30
2022-12-27T19:39:02.252Z,4.80
2022-12-27T19:41:34.325Z,4.10
2022-12-27T19:44:07.135Z,4.80
2022-12-27T19:46:39.186Z,3.80
2022-12-27T19:52:03.820Z,3.90
2022-12-27T19:54:36.375Z,4.60
2022-12-27T19:57:10.126Z,4.10
2022-12-27T19:59:42.657Z,4.70
2022-12-27T20:02:14.728Z,6.10
2022-12-27T20:04:46.802Z,4.90
2022-12-27T20:07:21.962Z,4.30
2022-12-27T20:09:54.096Z,5.50
2022-12-27T20:12:26.173Z,4.20
2022-12-27T20:14:58.521Z,4.70
2022-12-27T20:17:32.583Z,5.70
2022-12-27T20:20:04.801Z,4.00
2022-12-27T20:22:36.858Z,5.10
2022-12-27T20:25:10.217Z,4.30
2022-12-27T20:27:42.299Z,3.80
2022-12-27T20:30:15.632Z,4.80
2022-12-27T20:32:47.553Z,6.00
2022-12-27T20:35:20.418Z,4.70
2022-12-27T20:37:52.649Z,3.80
2022-12-27T20:40:25.186Z,5.60
2022-12-27T20:42:57.643Z,6.60
2022-12-27T20:45:29.544Z,4.00
2022-12-27T20:48:01.574Z,5.00
2022-12-27T20:50:33.672Z,4.10
2022-12-27T20:53:05.691Z,5.40
2022-12-27T20:55:37.594Z,5.00
2022-12-27T20:58:12.030Z,3.40
2022-12-27T21:00:43.851Z,3.40
2022-12-27T21:03:16.348Z,4.00
2022-12-27T21:05:48.440Z,4.60
2022-12-27T21:08:20.411Z,6.60
2022-12-27T21:10:52.573Z,3.60
2022-12-27T21:13:24.647Z,3.40
2022-12-27T21:15:56.671Z,3.60
2022-12-27T21:18:28.767Z,5.00
2022-12-27T21:21:05.260Z,5.50
2022-12-27T21:23:38.766Z,4.80
2022-12-27T21:26:12.529Z,3.70
2022-12-27T21:28:44.757Z,4.80
2022-12-27T21:31:18.093Z,3.80
2022-12-27T21:33:50.796Z,4.90
2022-12-27T21:36:24.603Z,3.00
2022-12-27T21:38:56.826Z,5.40
2022-12-27T21:41:31.161Z,4.50
2022-12-27T21:44:03.563Z,2.90
2022-12-27T21:46:37.474Z,3.50
2022-12-27T21:51:42.188Z,4.10
2022-12-27T21:54:16.318Z,4.20
2022-12-27T21:56:48.176Z,4.10
2022-12-27T21:59:19.979Z,4.50
2022-12-27T22:01:52.871Z,4.40
2022-12-27T22:04:25.206Z,3.20
2022-12-27T22:06:57.594Z,8.70
2022-12-27T22:09:29.496Z,4.90
2022-12-27T22:12:01.367Z,5.40
2022-12-27T22:14:36.997Z,5.20
2022-12-27T22:17:09.354Z,4.00
2022-12-27T22:19:41.979Z,11.60
2022-12-27T22:22:13.916Z,3.70
2022-12-27T22:24:45.845Z,3.20
2022-12-27T22:27:18.032Z,3.90
2022-12-27T22:29:50.285Z,4.90
2022-12-27T22:32:22.311Z,5.70
2022-12-27T22:34:54.243Z,3.50
2022-12-27T22:37:26.108Z,2.30
2022-12-27T22:39:58.075Z,3.00
2022-12-27T22:42:30.275Z,3.90
2022-12-27T22:45:02.144Z,4.20
2022-12-27T22:47:34.682Z,4.50
2022-12-27T22:50:07.372Z,3.10
2022-12-27T22:52:39.426Z,4.10
2022-12-27T22:55:12.366Z,5.20
2022-12-27T22:57:44.331Z,4.70
2022-12-27T23:00:18.511Z,3.60
2022-12-27T23:02:50.685Z,5.10
2022-12-27T23:05:22.760Z,6.30
2022-12-27T23:08:05.118Z,4.50
2022-12-27T23:10:38.788Z,4.90
2022-12-27T23:13:10.805Z,3.50
2022-12-27T23:15:42.733Z,4.30
2022-12-27T23:18:14.896Z,5.00
2022-12-27T23:21:19.264Z,4.40
2022-12-27T23:23:39.604Z,5.70
2022-12-27T23:26:14.290Z,4.20
2022-12-27T23:28:47.903Z,5.20
2022-12-27T23:31:21.678Z,4.10
2022-12-27T23:33:54.457Z,4.20
2022-12-27T23:36:26.368Z,3.90
2022-12-27T23:38:58.559Z,4.40
2022-12-27T23:41:30.338Z,4.90
2022-12-27T23:44:03.157Z,4.40
2022-12-27T23:46:36.416Z,4.10
2022-12-27T23:49:08.442Z,3.50
2022-12-27T23:51:40.264Z,4.70
2022-12-27T23:54:12.321Z,4.50
2022-12-27T23:56:44.386Z,5.50
2022-12-27T23:59:17.752Z,3.70
